Lincoln Park, NJ (07035)

1:10 AM EST on November 27, 2014 (GMT -0500)
Pompton Plains | Change Station
CLOSE
Current Station
Personal Weather Station
Location: Pompton Plains, NJ
Elevation: 200 ft
Nearby Weather Stations

Elev 200 ft 40.96 °N, 74.31 °W | Updated 11 seconds ago

Overcast
Overcast
34.1 °F
Feels Like 34 °F
N
1.0
Wind Variable Wind from East

Today
High -- | Low -- °F
--% Chance of Precip.
Yesterday
High -- | Low -- °F
Precip. -- in
6:58 AM 4:31 PM
Waxing Crescent, 26% visible
Pressure 29.88 in
Visibility 10.0 miles
Clouds Few 2100 ft
Overcast 8000 ft
Windchill 34 °F
Dew Point 30 °F
Humidity 85%
Rainfall 0.02 in
Snow Depth Not available.
UV 0 out of 12
Pollen .10 out of 12
Air Quality Not available.
Flu Activity Not available.
METAR KCDW 270553Z AUTO 00000KT 10SM FEW021 OVC080 02/M02 A2986 RMK AO2 SLP119 60005 T00171017 10022 20006 53009 TSNO

More Conditions Fewer Conditions

Pressure 29.88 in
Visibility 10.0 miles
Clouds Few 2100 ft
Overcast 8000 ft
Windchill 34 °F
Dew Point 30 °F
Humidity 85%
Rainfall 0.02 in
Snow Depth Not available.
UV 0 out of 12
Pollen .10 out of 12
Air Quality Not available.
Flu Activity Not available.
METAR KCDW 270553Z AUTO 00000KT 10SM FEW021 OVC080 02/M02 A2986 RMK AO2 SLP119 60005 T00171017 10022 20006 53009 TSNO

More Conditions Fewer Conditions

10-Day Weather Forecast

Almanac

Astronomy

Nov. 27, 2014 Rise Set
Actual Time
Civil Twilight
Nautical Twilight
Astronomical Twilight
Moon
Length of Visible Light
Length of Day
Tomorrow will be .
, % of the Moon is Illuminated

Today's Extremes

State Highs State Lows

Community

WunderPhotos

Upload Photos

1,773,961 photos uploaded!

WunderBlogs® & News

Nearby

Air Quality

  Air Quality AQ Index Pollutant
Not available.

Snow Depth

Station Depth Elevation

Earthquake Activity

City Distance Mag. Time & Date
Minimum magnitude displayed is 2.5.

Coastal Water Temperatures

Place Temperature

Nearby Weather Stations